Data for 08/16/2016

Time Sea-Level Adjusted Pressure Absolute Pressure Temperature Relative Humidity Dew Point   
(mb) (inHg) (mb) (inHg) (C) (F) (%) (C) (F)
00:05 1022 30.18 852 25.16 20.3 68.5 33 3.8 38.8
00:10 1022 30.18 852 25.16 20.2 68.3 33 3.7 38.6
00:15 1022 30.18 852 25.16 20.2 68.4 33 3.6 38.4
00:20 1022 30.18 852 25.16 20.2 68.4 33 3.7 38.6
00:25 1022 30.18 852 25.16 20.1 68.2 34 3.7 38.7
00:30 1022 30.18 852 25.16 20.1 68.2 33 3.4 38.1
00:35 1022 30.18 852 25.16 20.2 68.4 33 3.6 38.5
00:40 1023 30.21 852 25.16 20.1 68.1 33 3.6 38.4
00:45 1023 30.21 852 25.16 20 68 33 3.5 38.4
00:50 1023 30.21 852 25.16 19.9 67.8 34 3.6 38.5
00:55 1023 30.21 852 25.16 19.8 67.6 34 3.6 38.5
01:00 1023 30.21 852 25.16 19.5 67 35 3.8 38.9
01:05 1023 30.21 852 25.16 19.2 66.6 36 3.9 39
01:10 1023 30.21 852 25.16 19 66.2 36 3.7 38.7
01:15 1023 30.21 852 25.16 19 66.2 36 3.8 38.8
01:20 1023 30.21 852 25.16 18.9 66 36 3.8 38.9
01:25 1023 30.21 852 25.16 18.8 65.8 37 3.8 38.9
01:30 1023 30.21 852 25.16 18.5 65.3 38 4.1 39.4
01:35 1023 30.21 852 25.16 18.2 64.7 39 4.1 39.4
01:40 1023 30.21 852 25.16 18 64.3 40 4.2 39.5
01:45 1023 30.21 852 25.16 17.8 64.1 40 4.2 39.6
01:50 1023 30.21 852 25.16 17.8 64 40 4.2 39.6
01:55 1023 30.21 852 25.16 17.6 63.6 41 4.4 40
02:00 1023 30.21 852 25.16 17.3 63.1 42 4.3 39.7
02:05 1023 30.21 852 25.16 17.2 62.9 42 4.2 39.6
02:10 1023 30.21 852 25.16 17.3 63.1 41 4.1 39.3
02:15 1023 30.21 852 25.16 17.2 63 42 4.2 39.6
02:20 1023 30.21 852 25.16 17.1 62.7 42 4.2 39.6
02:25 1023 30.21 852 25.16 17 62.5 42 4.2 39.6
02:30 1023 30.21 852 25.16 16.8 62.2 42 4.1 39.4
02:35 1023 30.21 852 25.16 16.8 62.3 43 4.3 39.8
02:40 1023 30.21 852 25.16 16.7 62 45 4.7 40.4
02:45 1023 30.21 852 25.16 16.4 61.6 45 4.7 40.5
02:50 1023 30.21 852 25.16 16.4 61.5 45 4.6 40.3
02:55 1023 30.21 852 25.16 16.2 61.2 45 4.5 40.1
03:00 1023 30.21 852 25.16 16.1 61 46 4.5 40
03:05 1023 30.21 852 25.16 16 60.8 46 4.5 40.2
03:10 1023 30.21 852 25.16 15.9 60.6 46 4.4 39.8
03:15 1023 30.21 852 25.16 16 60.7 46 4.6 40.3
03:20 1023 30.21 852 25.16 15.8 60.5 47 4.7 40.5
03:25 1023 30.21 852 25.16 15.7 60.3 48 4.8 40.6
03:30 1023 30.21 852 25.16 15.5 60 48 4.8 40.6
03:35 1023 30.21 852 25.16 15.3 59.6 48 4.5 40.2
03:40 1023 30.21 852 25.16 15.2 59.3 50 4.9 40.9
03:45 1023 30.21 852 25.16 15 59 48 4.2 39.6
03:50 1023 30.21 852 25.16 15.1 59.2 48 4.4 39.8
03:55 1023 30.21 852 25.16 15 59 51 5 41
04:00 1023 30.21 852 25.16 14.7 58.4 50 4.4 39.9
04:05 1023 30.21 852 25.16 14.7 58.5 49 4.3 39.7
04:10 1023 30.21 852 25.16 14.6 58.4 49 4.1 39.4
04:15 1023 30.21 852 25.16 14.7 58.4 48 3.9 39.1
04:20 1023 30.21 852 25.16 15.1 59.2 48 4.3 39.8
04:25 1023 30.21 852 25.16 14.8 58.6 49 4.4 39.8
04:30 1023 30.21 852 25.16 14.7 58.5 49 4.1 39.4
04:35 1023 30.21 852 25.16 14.9 58.8 48 4 39.2
04:40 1023 30.21 852 25.16 15 59 46 3.7 38.6
04:45 1023 30.21 852 25.16 15.1 59.1 47 3.9 39
04:50 1023 30.21 852 25.16 15 58.9 47 3.9 39
04:55 1023 30.21 852 25.16 15.1 59.1 47 3.8 38.9
05:00 1023 30.21 852 25.16 14.9 58.8 48 3.9 39.1
05:05 1023 30.21 852 25.16 14.8 58.6 48 3.9 39.1
05:10 1023 30.21 852 25.16 14.7 58.4 48 4 39.1
05:15 1023 30.21 852 25.16 14.5 58.1 49 4 39.2
05:20 1023 30.21 852 25.16 14.4 58 49 4 39.2
05:25 1023 30.21 852 25.16 14.4 57.8 49 3.9 39
05:30 1023 30.21 852 25.16 14.3 57.7 50 4 39.2
05:35 1023 30.21 852 25.16 14.2 57.6 48 3.5 38.4
05:40 1023 30.21 852 25.16 14.3 57.8 47 3.4 38.1
05:45 1023 30.21 852 25.16 14.4 58 48 3.7 38.7
05:50 1023 30.21 852 25.16 14.4 58 48 3.6 38.5
05:55 1023 30.21 852 25.16 14.6 58.2 47 3.6 38.4
06:00 1023 30.21 852 25.16 14.9 58.8 47 3.7 38.7
06:05 1023 30.21 852 25.16 15 58.9 46 3.5 38.4
06:10 1023 30.21 852 25.16 14.9 58.9 47 3.7 38.7
06:15 1023 30.21 852 25.16 14.9 58.7 47 3.8 38.8
06:20 1023 30.21 852 25.16 14.9 58.8 47 3.8 38.9
06:25 1023 30.21 852 25.16 15.2 59.4 47 3.9 39.1
06:30 1023 30.21 853 25.19 15.4 59.7 44 3.4 38.1
06:35 1023 30.21 853 25.19 15.8 60.4 44 3.8 38.8
06:40 1023 30.21 853 25.19 16 60.8 44 3.8 38.8
06:45 1023 30.21 853 25.19 16.1 60.9 44 4 39.2
06:50 1023 30.21 853 25.19 16.3 61.3 44 4 39.2
06:55 1023 30.21 853 25.19 16.7 62.1 44 4.7 40.4
07:00 1023 30.21 853 25.19 17 62.6 43 4.5 40.1
07:05 1023 30.21 853 25.19 17.2 62.9 43 4.6 40.3
07:10 1023 30.21 853 25.19 17.8 64.1 42 4.9 40.9
07:15 1023 30.21 853 25.19 18.6 65.6 40 4.8 40.7
07:20 1023 30.21 853 25.19 19.4 66.9 39 5.1 41.1
07:25 1023 30.21 853 25.19 19.6 67.3 37 4.5 40.2
07:30 1023 30.21 853 25.19 19.7 67.5 37 5 40.9
07:35 1023 30.21 853 25.19 19.7 67.4 37 4.7 40.4
07:40 1023 30.21 853 25.19 20.1 68.1 37 5.2 41.4
07:45 1023 30.21 853 25.19 20.2 68.4 37 5.1 41.2
07:50 1023 30.21 853 25.19 20.5 68.8 37 5.4 41.8
07:55 1023 30.21 853 25.19 20.6 69.1 34 4.3 39.8
08:00 1023 30.21 853 25.19 20.6 69 33 4 39.2
08:05 1023 30.21 852 25.16 20.7 69.3 33 4.1 39.4
08:10 1023 30.21 852 25.16 21.4 70.4 32 4.3 39.7
08:15 1023 30.21 852 25.16 21.7 71 32 4.3 39.7
08:20 1023 30.21 852 25.16 22 71.5 31 4.3 39.7
08:25 1023 30.21 852 25.16 22.1 71.8 31 4.3 39.7
08:30 1023 30.21 852 25.16 22.1 71.8 33 5.4 41.7
08:35 1023 30.21 852 25.16 21.9 71.4 33 5 41.1
08:40 1023 30.21 852 25.16 22.2 71.9 32 4.7 40.5
08:45 1023 30.21 852 25.16 22 71.7 32 4.6 40.3
08:50 1023 30.21 852 25.16 21.9 71.3 32 4.6 40.3
08:55 1023 30.21 852 25.16 21.4 70.6 32 4.1 39.5
09:00 1023 30.21 852 25.16 21.7 71.1 32 4.6 40.3
09:05 1023 30.21 852 25.16 22.2 72 31 4.5 40.1
09:10 1023 30.21 852 25.16 22.5 72.5 30 4.2 39.5
09:15 1023 30.21 852 25.16 22.4 72.3 30 4.4 39.8
09:20 1023 30.21 852 25.16 22.6 72.6 29 4.1 39.3
09:25 1023 30.21 852 25.16 22.9 73.1 29 4.2 39.5
09:30 1023 30.21 852 25.16 23.5 74.2 29 4.5 40.1
09:35 1023 30.21 852 25.16 24 75.3 27 4.2 39.6
09:40 1023 30.21 852 25.16 24 75.3 28 4.7 40.5
09:45 1023 30.21 852 25.16 23.5 74.3 28 4.1 39.4
09:50 1023 30.21 852 25.16 23.7 74.7 27 3.9 39
09:55 1023 30.21 852 25.16 24.2 75.5 27 4 39.3
10:00 1023 30.21 852 25.16 24.3 75.8 26 4 39.2
10:05 1023 30.21 852 25.16 25 77 26 4.2 39.5
10:10 1023 30.21 852 25.16 25.2 77.4 25 4.2 39.6
10:15 1023 30.21 852 25.16 25.3 77.6 26 4.5 40
10:20 1023 30.21 852 25.16 25.4 77.7 27 5.1 41.3
10:25 1023 30.21 852 25.16 25.1 77.2 26 4.8 40.6
10:30 1023 30.21 852 25.16 24.6 76.2 26 3.9 39
10:35 1023 30.21 852 25.16 25 77 27 4.7 40.5
10:40 1023 30.21 852 25.16 24.4 75.9 27 4.5 40.1
10:45 1023 30.21 852 25.16 24.7 76.4 26 4.2 39.6
10:50 1023 30.21 852 25.16 24.9 76.8 25 3.7 38.7
10:55 1022 30.18 852 25.16 25.7 78.3 25 4.3 39.8
11:00 1022 30.18 852 25.16 26.6 79.8 24 4.5 40.1
11:05 1022 30.18 852 25.16 25.5 78 26 4.6 40.4
11:10 1022 30.18 852 25.16 25 76.9 25 3.9 39.1
11:15 1022 30.18 851 25.13 26.2 79.1 24 4.5 40.1
11:20 1022 30.18 851 25.13 26.5 79.7 24 4.6 40.2
11:25 1022 30.18 851 25.13 26.7 80 23 4.3 39.7
11:30 1022 30.18 851 25.13 27 80.7 24 5 41
11:35 1022 30.18 851 25.13 27.4 81.3 22 4.3 39.8
11:40 1022 30.18 851 25.13 27.7 81.8 23 4.9 40.8
11:45 1022 30.18 851 25.13 28.2 82.7 20 3.4 38.1
11:50 1022 30.18 851 25.13 28.5 83.3 20 3.8 38.8
11:55 1022 30.18 851 25.13 28.4 83.1 20 3.3 38
12:00 1022 30.18 851 25.13 28 82.4 20 3.1 37.5
12:05 1022 30.18 851 25.13 29 84.1 20 3.8 38.9
12:10 1022 30.18 851 25.13 29.1 84.3 20 4 39.1
12:15 1022 30.18 851 25.13 29 84.2 19 3.3 37.9
12:20 1022 30.18 851 25.13 28.1 82.6 22 4.6 40.3
12:25 1021 30.15 851 25.13 28.3 82.9 21 4.1 39.3
12:30 1021 30.15 851 25.13 28.5 83.4 20 3.7 38.6
12:35 1021 30.15 850 25.1 29.1 84.5 20 4 39.2
12:40 1021 30.15 851 25.13 29.6 85.3 19 3.8 38.8
12:45 1021 30.15 850 25.1 29.7 85.5 18 3.1 37.6
12:50 1021 30.15 850 25.1 30.3 86.5 17 2.6 36.7
12:55 1021 30.15 850 25.1 30.2 86.3 18 3.4 38.1
13:00 1021 30.15 850 25.1 29.8 85.7 17 2.7 36.9
13:05 1021 30.15 850 25.1 30.5 86.8 16 1.9 35.4
13:10 1021 30.15 850 25.1 31.3 88.4 14 1.5 34.7
13:15 1021 30.15 850 25.1 31.3 88.4 14 1.4 34.6
13:20 1021 30.15 850 25.1 31.3 88.4 15 1.6 34.8
13:25 1021 30.15 850 25.1 31.3 88.4 14 1.4 34.6
13:30 1021 30.15 850 25.1 31.2 88.1 14 0.8 33.5
13:35 1021 30.15 850 25.1 31.3 88.3 14 0.6 33
13:40 1021 30.15 850 25.1 31.4 88.6 12 -1 30.3
13:45 1021 30.15 850 25.1 30.4 86.8 13 -0.9 30.4
13:50 1021 30.15 850 25.1 31.1 87.9 12 -0.8 30.6
13:55 1020 30.12 850 25.1 31 87.8 13 -0.1 31.9
14:00 1020 30.12 850 25.1 30.8 87.5 12 -1.3 29.7
14:05 1020 30.12 850 25.1 31.7 89.1 12 -0.8 30.6
14:10 1020 30.12 849 25.07 31.9 89.4 12 -0.9 30.4
14:15 1020 30.12 849 25.07 31.8 89.2 12 -0.8 30.6
14:20 1020 30.12 849 25.07 32.3 90.1 12 0 32
14:25 1020 30.12 849 25.07 32.3 90.1 12 -0.7 30.7
14:30 1020 30.12 849 25.07 32.7 90.8 11 -1.8 28.7
14:35 1020 30.12 849 25.07 32.8 91 11 -1.1 30.1
14:40 1020 30.12 849 25.07 32.6 90.7 11 -0.7 30.7
14:45 1020 30.12 849 25.07 32.4 90.2 11 -1.6 29.1
14:50 1020 30.12 849 25.07 32.4 90.3 12 -0.3 31.4
14:55 1020 30.12 849 25.07 32.5 90.6 11 -0.8 30.6
15:00 1020 30.12 849 25.07 32.6 90.8 11 -1.4 29.4
15:05 1020 30.12 849 25.07 32.8 91 11 -0.9 30.3
15:10 1020 30.12 849 25.07 32.8 91 11 -0.8 30.5
15:15 1020 30.12 849 25.07 32.8 91 12 -0.2 31.6
15:20 1020 30.12 849 25.07 32.7 90.8 11 -1.1 30
15:25 1020 30.12 849 25.07 32.9 91.2 11 -1.2 29.9
15:30 1020 30.12 849 25.07 32.8 91.1 11 -0.8 30.6
15:35 1019 30.09 849 25.07 32.7 90.9 12 -0.6 31
15:40 1019 30.09 849 25.07 32.6 90.8 11 -1.6 29.2
15:45 1019 30.09 849 25.07 32.3 90.1 12 -0.8 30.6
15:50 1019 30.09 849 25.07 32.3 90.1 11 -1.1 30
15:55 1019 30.09 849 25.07 32.3 90.2 11 -1.3 29.6
16:00 1019 30.09 849 25.07 31.8 89.3 12 -0.7 30.7
16:05 1019 30.09 849 25.07 32.2 89.9 12 -0.7 30.7
16:10 1019 30.09 849 25.07 31.5 88.7 12 -0.9 30.4
16:15 1019 30.09 849 25.07 31.2 88.2 12 -1.4 29.6
16:20 1019 30.09 849 25.07 31.1 88 12 -1.2 29.8
16:25 1019 30.09 849 25.07 31.5 88.8 12 -0.6 30.9
16:30 1019 30.09 849 25.07 32 89.6 12 -0.5 31
16:35 1019 30.09 849 25.07 32 89.7 12 -0.5 31.1
16:40 1019 30.09 849 25.07 31.8 89.2 12 -0.9 30.4
16:45 1019 30.09 849 25.07 31.6 88.9 12 -0.8 30.6
16:50 1019 30.09 849 25.07 32 89.6 12 -0.8 30.5
16:55 1019 30.09 849 25.07 31.9 89.5 12 -0.5 31.1
17:00 1019 30.09 848 25.04 31.8 89.2 12 -0.6 31
17:05 1019 30.09 848 25.04 31.3 88.3 13 -0.1 31.9
17:10 1019 30.09 848 25.04 31.4 88.5 12 -0.7 30.7
17:15 1019 30.09 848 25.04 31.6 88.9 13 0.1 32.2
17:20 1019 30.09 848 25.04 31.5 88.7 13 -0.1 31.9
17:25 1019 30.09 848 25.04 31.7 89.1 12 -0.5 31.2
17:30 1019 30.09 848 25.04 31.4 88.5 13 0.1 32.2
17:35 1019 30.09 848 25.04 31.3 88.3 12 -0.8 30.6
17:40 1019 30.09 848 25.04 31.4 88.6 13 0.2 32.3
17:45 1019 30.09 848 25.04 31.4 88.5 13 -0.4 31.3
17:50 1019 30.09 848 25.04 30.8 87.5 13 0.1 32.2
17:55 1019 30.09 848 25.04 30.5 87 13 -0.5 31.1
18:00 1019 30.09 848 25.04 30.3 86.5 13 -1.3 29.7
18:05 1019 30.09 848 25.04 30.1 86.1 13 -1.2 29.9
18:10 1019 30.09 848 25.04 30 86 13 -0.9 30.3
18:15 1019 30.09 848 25.04 29.9 85.9 13 -0.8 30.6
18:20 1019 30.09 848 25.04 29.8 85.7 13 -0.9 30.4
18:25 1019 30.09 848 25.04 29.9 85.7 14 -0.3 31.4
18:30 1019 30.09 848 25.04 29.8 85.7 14 -0.1 31.8
18:35 1019 30.09 848 25.04 29.8 85.6 13 -1.3 29.7
18:40 1019 30.09 848 25.04 29.7 85.4 16 1.9 35.4
18:45 1019 30.09 848 25.04 29.5 85.1 17 2.5 36.5
18:50 1019 30.09 848 25.04 29.3 84.7 15 0.4 32.8
18:55 1019 30.09 848 25.04 29.1 84.4 17 1.9 35.4
19:00 1019 30.09 848 25.04 29 84.2 18 2.7 36.9
19:05 1019 30.09 848 25.04 28.9 84 15 0.4 32.8
19:10 1019 30.09 848 25.04 28.8 83.8 17 1.8 35.3
19:15 1019 30.09 848 25.04 28.3 82.9 19 2.4 36.3
19:20 1019 30.09 848 25.04 27.9 82.3 22 4.5 40.1
19:25 1019 30.09 848 25.04 27.4 81.4 23 4.6 40.2
19:30 1019 30.09 848 25.04 26.7 80.1 26 6 42.8
19:35 1019 30.09 848 25.04 25.9 78.7 30 7.2 44.9
19:40 1019 30.09 848 25.04 25.3 77.5 25 4.2 39.6
19:45 1019 30.09 848 25.04 25.6 78 30 7 44.7
19:50 1019 30.09 848 25.04 25.1 77.2 27 5.2 41.4
19:55 1019 30.09 848 25.04 24.8 76.6 28 5.2 41.4
20:00 1019 30.09 848 25.04 24.3 75.8 24 3 37.4
20:05 1019 30.09 848 25.04 24.5 76.1 22 1.9 35.4
20:10 1019 30.09 848 25.04 24.9 76.8 23 2.9 37.2
20:15 1019 30.09 848 25.04 24.5 76.1 26 3.8 38.9
20:20 1019 30.09 849 25.07 23.8 74.9 26 3.5 38.3
20:25 1019 30.09 849 25.07 24 75.3 22 1.3 34.3
20:30 1020 30.12 849 25.07 24.6 76.3 22 1.8 35.2
20:35 1020 30.12 849 25.07 24.5 76.2 24 2.8 37
20:40 1020 30.12 849 25.07 24.2 75.6 23 2.3 36.1
20:45 1020 30.12 849 25.07 25.6 78.1 20 1.1 34
20:50 1020 30.12 849 25.07 26 78.8 20 1.4 34.6
20:55 1020 30.12 849 25.07 26.2 79.2 21 2.2 35.9
21:00 1020 30.12 849 25.07 25.5 78 20 1.3 34.4
21:05 1020 30.12 849 25.07 25.5 77.8 25 4 39.1
21:10 1020 30.12 849 25.07 25.7 78.3 19 0.3 32.6
21:15 1020 30.12 849 25.07 26.3 79.3 19 1 33.7
21:20 1020 30.12 849 25.07 26.1 79.1 18 0.4 32.7
21:25 1020 30.12 849 25.07 26.1 79 22 2.8 37.1
21:30 1020 30.12 849 25.07 24.7 76.5 24 3.1 37.5
21:35 1020 30.12 849 25.07 24 75.2 24 2.5 36.5
21:40 1020 30.12 849 25.07 23.8 74.8 26 3.4 38
21:45 1020 30.12 849 25.07 23.7 74.6 26 3.4 38.1
21:50 1020 30.12 849 25.07 23.5 74.3 27 3.9 39
21:55 1020 30.12 849 25.07 23.4 74 30 5.2 41.4
22:00 1020 30.12 849 25.07 22.9 73.3 28 3.7 38.7
22:05 1020 30.12 849 25.07 22.9 73.2 29 4.1 39.3
22:10 1020 30.12 849 25.07 23.2 73.7 27 3.2 37.7
22:15 1020 30.12 849 25.07 22.4 72.3 27 2.9 37.3
22:20 1020 30.12 849 25.07 22.1 71.8 28 3.1 37.5
22:25 1020 30.12 849 25.07 21.9 71.4 29 3.1 37.6
22:30 1020 30.12 849 25.07 22 71.7 27 2.3 36.1
22:35 1020 30.12 849 25.07 22.6 72.6 27 2.7 36.9
22:40 1020 30.12 849 25.07 22.2 72 29 3.7 38.7
22:45 1020 30.12 849 25.07 21.7 71.1 30 3.8 38.8
22:50 1020 30.12 849 25.07 21.2 70.2 30 3.3 38
22:55 1020 30.12 849 25.07 21.1 69.9 29 2.7 36.8
23:00 1020 30.12 849 25.07 21.5 70.6 29 2.7 36.9
23:05 1020 30.12 850 25.1 21.6 70.8 30 3.2 37.8
23:10 1020 30.12 850 25.1 21.2 70.2 31 3.6 38.4
23:15 1020 30.12 850 25.1 20.8 69.4 31 3.3 38
23:20 1021 30.15 850 25.1 20.8 69.4 30 2.9 37.3
23:25 1021 30.15 850 25.1 20.9 69.6 32 3.8 38.8
23:30 1021 30.15 850 25.1 21.2 70.1 31 3.5 38.3
23:35 1021 30.15 850 25.1 21.5 70.6 29 2.6 36.8
23:40 1021 30.15 850 25.1 21.4 70.4 30 3.3 37.9
23:45 1020 30.12 850 25.1 21.5 70.7 29 2.8 37
23:50 1021 30.15 850 25.1 21.9 71.4 29 3.4 38
23:55 1021 30.15 850 25.1 21.3 70.3 33 4.4 40
24:00 1021 30.15 850 25.1 20.4 68.7 31 2.8 37.1